sensor_id;sensor_type;location;lat;lon;timestamp;temperature;humidity
46037;DHT22;31769;49.304;8.428;2023-06-24T00:02:05;19.90;99.90
46037;DHT22;31769;49.304;8.428;2023-06-24T00:05:06;19.80;99.90
46037;DHT22;31769;49.304;8.428;2023-06-24T00:08:08;19.80;99.90
46037;DHT22;31769;49.304;8.428;2023-06-24T00:11:10;19.80;99.90
46037;DHT22;31769;49.304;8.428;2023-06-24T00:14:11;19.70;99.90
46037;DHT22;31769;49.304;8.428;2023-06-24T00:17:11;19.70;99.90
46037;DHT22;31769;49.304;8.428;2023-06-24T00:20:12;19.60;99.90
46037;DHT22;31769;49.304;8.428;2023-06-24T00:23:17;19.60;99.90
46037;DHT22;31769;49.304;8.428;2023-06-24T00:26:25;19.60;99.90
46037;DHT22;31769;49.304;8.428;2023-06-24T00:29:26;19.60;99.90
46037;DHT22;31769;49.304;8.428;2023-06-24T00:32:28;19.50;99.90
46037;DHT22;31769;49.304;8.428;2023-06-24T00:35:29;19.50;99.90
46037;DHT22;31769;49.304;8.428;2023-06-24T00:38:29;19.50;99.90
46037;DHT22;31769;49.304;8.428;2023-06-24T00:41:34;19.40;99.90
46037;DHT22;31769;49.304;8.428;2023-06-24T00:44:35;19.30;99.90
46037;DHT22;31769;49.304;8.428;2023-06-24T00:47:38;19.10;99.90
46037;DHT22;31769;49.304;8.428;2023-06-24T00:50:40;19.00;99.90
46037;DHT22;31769;49.304;8.428;2023-06-24T00:53:46;18.90;99.90
46037;DHT22;31769;49.304;8.428;2023-06-24T00:56:48;18.80;99.90
46037;DHT22;31769;49.304;8.428;2023-06-24T00:59:50;18.80;99.90
46037;DHT22;31769;49.304;8.428;2023-06-24T01:02:53;18.80;99.90
46037;DHT22;31769;49.304;8.428;2023-06-24T01:05:54;18.80;99.90
46037;DHT22;31769;49.304;8.428;2023-06-24T01:08:59;18.80;99.90
46037;DHT22;31769;49.304;8.428;2023-06-24T01:12:05;18.80;99.90
46037;DHT22;31769;49.304;8.428;2023-06-24T01:15:08;18.70;99.90
46037;DHT22;31769;49.304;8.428;2023-06-24T01:18:29;18.70;99.90
46037;DHT22;31769;49.304;8.428;2023-06-24T01:28:20;18.40;99.90
46037;DHT22;31769;49.304;8.428;2023-06-24T01:31:45;18.30;99.90
46037;DHT22;31769;49.304;8.428;2023-06-24T01:35:00;18.30;99.90
46037;DHT22;31769;49.304;8.428;2023-06-24T01:38:12;18.30;99.90
46037;DHT22;31769;49.304;8.428;2023-06-24T01:41:20;18.30;99.90
46037;DHT22;31769;49.304;8.428;2023-06-24T01:44:22;18.30;99.90
46037;DHT22;31769;49.304;8.428;2023-06-24T01:47:25;18.30;99.90
46037;DHT22;31769;49.304;8.428;2023-06-24T01:50:30;18.30;99.90
46037;DHT22;31769;49.304;8.428;2023-06-24T01:53:36;18.30;99.90
46037;DHT22;31769;49.304;8.428;2023-06-24T01:56:41;18.30;99.90
46037;DHT22;31769;49.304;8.428;2023-06-24T01:59:45;18.30;99.90
46037;DHT22;31769;49.304;8.428;2023-06-24T02:02:46;18.30;99.90
46037;DHT22;31769;49.304;8.428;2023-06-24T02:05:48;18.30;99.90
46037;DHT22;31769;49.304;8.428;2023-06-24T02:08:50;18.30;99.90
46037;DHT22;31769;49.304;8.428;2023-06-24T02:11:53;18.30;99.90
46037;DHT22;31769;49.304;8.428;2023-06-24T02:14:55;19.20;99.90
46037;DHT22;31769;49.304;8.428;2023-06-24T02:17:57;19.30;99.90
46037;DHT22;31769;49.304;8.428;2023-06-24T02:20:59;18.20;99.90
46037;DHT22;31769;49.304;8.428;2023-06-24T02:24:01;18.40;99.90
46037;DHT22;31769;49.304;8.428;2023-06-24T02:27:07;18.20;99.90
46037;DHT22;31769;49.304;8.428;2023-06-24T02:30:09;18.20;99.90
46037;DHT22;31769;49.304;8.428;2023-06-24T02:33:11;18.10;99.90
46037;DHT22;31769;49.304;8.428;2023-06-24T02:36:12;18.20;99.90
46037;DHT22;31769;49.304;8.428;2023-06-24T02:39:13;18.20;99.90
46037;DHT22;31769;49.304;8.428;2023-06-24T02:42:13;18.10;99.90
46037;DHT22;31769;49.304;8.428;2023-06-24T02:45:14;18.20;99.90
46037;DHT22;31769;49.304;8.428;2023-06-24T02:48:16;18.20;99.90
46037;DHT22;31769;49.304;8.428;2023-06-24T02:51:18;18.10;99.90
46037;DHT22;31769;49.304;8.428;2023-06-24T02:54:20;18.20;99.90
46037;DHT22;31769;49.304;8.428;2023-06-24T02:57:41;18.10;99.90
46037;DHT22;31769;49.304;8.428;2023-06-24T03:01:01;18.10;99.90
46037;DHT22;31769;49.304;8.428;2023-06-24T03:04:07;18.10;99.90
46037;DHT22;31769;49.304;8.428;2023-06-24T03:07:08;18.10;99.90
46037;DHT22;31769;49.304;8.428;2023-06-24T03:10:14;18.10;99.90
46037;DHT22;31769;49.304;8.428;2023-06-24T03:13:15;18.10;99.90
46037;DHT22;31769;49.304;8.428;2023-06-24T03:16:20;18.00;99.90
46037;DHT22;31769;49.304;8.428;2023-06-24T03:19:41;18.00;99.90
46037;DHT22;31769;49.304;8.428;2023-06-24T03:22:43;18.00;99.90
46037;DHT22;31769;49.304;8.428;2023-06-24T03:25:46;17.90;99.90
46037;DHT22;31769;49.304;8.428;2023-06-24T03:28:47;17.90;99.90
46037;DHT22;31769;49.304;8.428;2023-06-24T03:31:50;17.90;99.90
46037;DHT22;31769;49.304;8.428;2023-06-24T03:34:55;18.00;99.90
46037;DHT22;31769;49.304;8.428;2023-06-24T03:37:56;17.90;99.90
46037;DHT22;31769;49.304;8.428;2023-06-24T03:40:57;17.80;99.90
46037;DHT22;31769;49.304;8.428;2023-06-24T03:43:57;17.80;99.90
46037;DHT22;31769;49.304;8.428;2023-06-24T03:46:58;17.90;99.90
46037;DHT22;31769;49.304;8.428;2023-06-24T03:49:59;17.90;99.90
46037;DHT22;31769;49.304;8.428;2023-06-24T03:53:00;18.00;99.90
46037;DHT22;31769;49.304;8.428;2023-06-24T03:56:01;18.00;99.90
46037;DHT22;31769;49.304;8.428;2023-06-24T03:59:02;18.10;99.90
46037;DHT22;31769;49.304;8.428;2023-06-24T04:02:04;18.10;99.90
46037;DHT22;31769;49.304;8.428;2023-06-24T04:05:09;18.20;99.90
46037;DHT22;31769;49.304;8.428;2023-06-24T04:08:10;18.30;99.90
46037;DHT22;31769;49.304;8.428;2023-06-24T04:11:12;18.20;99.90
46037;DHT22;31769;49.304;8.428;2023-06-24T04:14:13;18.30;99.90
46037;DHT22;31769;49.304;8.428;2023-06-24T04:17:14;18.30;99.90
46037;DHT22;31769;49.304;8.428;2023-06-24T04:20:14;18.60;99.90
46037;DHT22;31769;49.304;8.428;2023-06-24T04:23:15;18.30;99.90
46037;DHT22;31769;49.304;8.428;2023-06-24T04:26:16;18.30;99.90
46037;DHT22;31769;49.304;8.428;2023-06-24T04:29:17;18.30;99.90
46037;DHT22;31769;49.304;8.428;2023-06-24T04:32:18;18.40;99.90
46037;DHT22;31769;49.304;8.428;2023-06-24T04:35:18;18.80;99.90
46037;DHT22;31769;49.304;8.428;2023-06-24T04:38:19;18.50;99.90
46037;DHT22;31769;49.304;8.428;2023-06-24T04:41:21;18.60;99.90
46037;DHT22;31769;49.304;8.428;2023-06-24T04:44:22;18.70;99.90
46037;DHT22;31769;49.304;8.428;2023-06-24T04:47:22;18.80;99.90
46037;DHT22;31769;49.304;8.428;2023-06-24T04:50:23;19.00;99.90
46037;DHT22;31769;49.304;8.428;2023-06-24T04:53:23;19.10;99.90
46037;DHT22;31769;49.304;8.428;2023-06-24T04:56:24;19.10;99.90
46037;DHT22;31769;49.304;8.428;2023-06-24T04:59:25;19.40;99.90
46037;DHT22;31769;49.304;8.428;2023-06-24T05:02:26;20.70;99.90
46037;DHT22;31769;49.304;8.428;2023-06-24T05:05:26;19.40;99.90
46037;DHT22;31769;49.304;8.428;2023-06-24T05:08:27;19.40;99.90
46037;DHT22;31769;49.304;8.428;2023-06-24T05:11:28;19.50;99.90
46037;DHT22;31769;49.304;8.428;2023-06-24T05:14:28;19.60;99.90
46037;DHT22;31769;49.304;8.428;2023-06-24T05:17:29;19.70;99.90
46037;DHT22;31769;49.304;8.428;2023-06-24T05:20:30;19.70;99.90
46037;DHT22;31769;49.304;8.428;2023-06-24T05:23:30;19.80;99.90
46037;DHT22;31769;49.304;8.428;2023-06-24T05:26:31;19.90;99.90
46037;DHT22;31769;49.304;8.428;2023-06-24T05:29:33;20.30;99.90
46037;DHT22;31769;49.304;8.428;2023-06-24T05:32:34;20.00;99.90
46037;DHT22;31769;49.304;8.428;2023-06-24T05:35:34;20.10;99.90
46037;DHT22;31769;49.304;8.428;2023-06-24T05:38:37;20.20;99.90
46037;DHT22;31769;49.304;8.428;2023-06-24T05:41:38;20.30;99.90
46037;DHT22;31769;49.304;8.428;2023-06-24T05:44:39;20.20;99.90
46037;DHT22;31769;49.304;8.428;2023-06-24T05:47:41;20.30;99.90
46037;DHT22;31769;49.304;8.428;2023-06-24T05:50:41;20.40;99.90
46037;DHT22;31769;49.304;8.428;2023-06-24T05:53:42;20.50;99.90
46037;DHT22;31769;49.304;8.428;2023-06-24T05:56:43;20.70;99.90
46037;DHT22;31769;49.304;8.428;2023-06-24T05:59:43;20.80;99.90
46037;DHT22;31769;49.304;8.428;2023-06-24T06:02:44;20.80;99.90
46037;DHT22;31769;49.304;8.428;2023-06-24T06:05:45;20.70;99.90
46037;DHT22;31769;49.304;8.428;2023-06-24T06:08:45;20.80;99.90
46037;DHT22;31769;49.304;8.428;2023-06-24T06:11:46;20.90;99.90
46037;DHT22;31769;49.304;8.428;2023-06-24T06:14:46;20.90;99.90
46037;DHT22;31769;49.304;8.428;2023-06-24T06:17:47;21.10;99.90
46037;DHT22;31769;49.304;8.428;2023-06-24T06:20:48;21.20;99.90
46037;DHT22;31769;49.304;8.428;2023-06-24T06:23:48;21.30;99.90
46037;DHT22;31769;49.304;8.428;2023-06-24T06:26:49;21.30;99.90
46037;DHT22;31769;49.304;8.428;2023-06-24T06:29:50;21.20;99.90
46037;DHT22;31769;49.304;8.428;2023-06-24T06:32:50;21.20;99.90
46037;DHT22;31769;49.304;8.428;2023-06-24T06:35:51;21.20;99.90
46037;DHT22;31769;49.304;8.428;2023-06-24T06:38:51;21.20;99.90
46037;DHT22;31769;49.304;8.428;2023-06-24T06:41:52;21.10;99.90
46037;DHT22;31769;49.304;8.428;2023-06-24T06:44:53;21.30;99.90
46037;DHT22;31769;49.304;8.428;2023-06-24T06:47:54;21.50;99.90
46037;DHT22;31769;49.304;8.428;2023-06-24T06:50:54;21.40;99.90
46037;DHT22;31769;49.304;8.428;2023-06-24T06:53:55;21.60;99.90
46037;DHT22;31769;49.304;8.428;2023-06-24T06:57:03;21.80;99.90
46037;DHT22;31769;49.304;8.428;2023-06-24T07:00:07;21.70;99.90
46037;DHT22;31769;49.304;8.428;2023-06-24T07:03:07;21.70;99.90
46037;DHT22;31769;49.304;8.428;2023-06-24T07:06:08;21.80;99.90
46037;DHT22;31769;49.304;8.428;2023-06-24T07:09:09;21.90;99.90
46037;DHT22;31769;49.304;8.428;2023-06-24T07:12:10;22.10;99.90
46037;DHT22;31769;49.304;8.428;2023-06-24T07:15:10;22.20;99.90
46037;DHT22;31769;49.304;8.428;2023-06-24T07:18:11;22.20;99.90
46037;DHT22;31769;49.304;8.428;2023-06-24T07:21:12;22.10;99.90
46037;DHT22;31769;49.304;8.428;2023-06-24T07:24:12;22.20;99.90
46037;DHT22;31769;49.304;8.428;2023-06-24T07:27:13;22.30;99.90
46037;DHT22;31769;49.304;8.428;2023-06-24T07:30:14;22.40;99.90
46037;DHT22;31769;49.304;8.428;2023-06-24T07:33:15;22.50;99.90
46037;DHT22;31769;49.304;8.428;2023-06-24T07:36:16;22.70;99.90
46037;DHT22;31769;49.304;8.428;2023-06-24T07:39:17;23.00;99.90
46037;DHT22;31769;49.304;8.428;2023-06-24T07:42:18;23.20;99.90
46037;DHT22;31769;49.304;8.428;2023-06-24T07:45:21;23.50;99.90
46037;DHT22;31769;49.304;8.428;2023-06-24T07:48:22;23.70;99.90
46037;DHT22;31769;49.304;8.428;2023-06-24T07:51:23;23.90;99.90
46037;DHT22;31769;49.304;8.428;2023-06-24T07:54:23;23.90;99.90
46037;DHT22;31769;49.304;8.428;2023-06-24T07:57:24;24.00;99.90
46037;DHT22;31769;49.304;8.428;2023-06-24T08:00:26;24.20;99.90
46037;DHT22;31769;49.304;8.428;2023-06-24T08:03:27;24.20;99.90
46037;DHT22;31769;49.304;8.428;2023-06-24T08:06:28;24.20;99.90
46037;DHT22;31769;49.304;8.428;2023-06-24T08:09:29;24.10;99.90
46037;DHT22;31769;49.304;8.428;2023-06-24T08:12:30;24.00;99.90
46037;DHT22;31769;49.304;8.428;2023-06-24T08:15:31;23.90;99.90
46037;DHT22;31769;49.304;8.428;2023-06-24T08:18:32;24.00;99.90
46037;DHT22;31769;49.304;8.428;2023-06-24T08:21:33;24.20;99.90
46037;DHT22;31769;49.304;8.428;2023-06-24T08:24:36;24.50;99.90
46037;DHT22;31769;49.304;8.428;2023-06-24T08:27:56;24.60;99.90
46037;DHT22;31769;49.304;8.428;2023-06-24T08:34:35;24.50;99.90
46037;DHT22;31769;49.304;8.428;2023-06-24T08:37:37;24.50;99.90
46037;DHT22;31769;49.304;8.428;2023-06-24T08:40:38;24.50;99.90
46037;DHT22;31769;49.304;8.428;2023-06-24T08:43:40;24.70;99.90
46037;DHT22;31769;49.304;8.428;2023-06-24T08:46:41;25.00;99.20
46037;DHT22;31769;49.304;8.428;2023-06-24T08:49:59;25.20;98.10
46037;DHT22;31769;49.304;8.428;2023-06-24T08:53:07;25.30;97.10
46037;DHT22;31769;49.304;8.428;2023-06-24T08:56:09;25.20;97.30
46037;DHT22;31769;49.304;8.428;2023-06-24T08:59:10;25.10;97.50
46037;DHT22;31769;49.304;8.428;2023-06-24T09:02:11;25.00;97.90
46037;DHT22;31769;49.304;8.428;2023-06-24T09:05:14;25.30;98.00
46037;DHT22;31769;49.304;8.428;2023-06-24T09:08:14;25.60;97.80
46037;DHT22;31769;49.304;8.428;2023-06-24T09:11:22;25.60;96.90
46037;DHT22;31769;49.304;8.428;2023-06-24T09:14:27;25.60;97.30
46037;DHT22;31769;49.304;8.428;2023-06-24T09:17:29;25.60;97.40
46037;DHT22;31769;49.304;8.428;2023-06-24T09:20:31;25.50;95.90
46037;DHT22;31769;49.304;8.428;2023-06-24T09:23:38;25.50;96.30
46037;DHT22;31769;49.304;8.428;2023-06-24T09:26:43;25.60;96.90
46037;DHT22;31769;49.304;8.428;2023-06-24T09:29:46;25.80;96.00
46037;DHT22;31769;49.304;8.428;2023-06-24T09:32:48;26.10;95.30
46037;DHT22;31769;49.304;8.428;2023-06-24T09:35:49;26.30;94.80
46037;DHT22;31769;49.304;8.428;2023-06-24T09:38:50;26.40;94.10
46037;DHT22;31769;49.304;8.428;2023-06-24T09:41:51;26.50;93.50
46037;DHT22;31769;49.304;8.428;2023-06-24T09:44:55;26.60;93.30
46037;DHT22;31769;49.304;8.428;2023-06-24T09:47:57;26.80;93.30
46037;DHT22;31769;49.304;8.428;2023-06-24T09:51:03;27.00;92.90
46037;DHT22;31769;49.304;8.428;2023-06-24T09:54:07;27.20;92.40
46037;DHT22;31769;49.304;8.428;2023-06-24T09:57:08;27.30;92.30
46037;DHT22;31769;49.304;8.428;2023-06-24T10:00:11;27.30;92.40
46037;DHT22;31769;49.304;8.428;2023-06-24T10:03:12;27.30;91.90
46037;DHT22;31769;49.304;8.428;2023-06-24T10:06:14;27.10;92.10
46037;DHT22;31769;49.304;8.428;2023-06-24T10:09:16;27.00;91.80
46037;DHT22;31769;49.304;8.428;2023-06-24T10:12:19;27.00;92.20
46037;DHT22;31769;49.304;8.428;2023-06-24T10:15:19;27.10;92.50
46037;DHT22;31769;49.304;8.428;2023-06-24T10:18:36;27.10;91.30
46037;DHT22;31769;49.304;8.428;2023-06-24T10:21:51;27.00;90.30
46037;DHT22;31769;49.304;8.428;2023-06-24T10:24:52;27.10;90.40
46037;DHT22;31769;49.304;8.428;2023-06-24T10:27:56;27.30;90.50
46037;DHT22;31769;49.304;8.428;2023-06-24T10:30:57;27.60;90.20
46037;DHT22;31769;49.304;8.428;2023-06-24T10:33:58;27.80;88.70
46037;DHT22;31769;49.304;8.428;2023-06-24T10:40:02;28.00;86.80
46037;DHT22;31769;49.304;8.428;2023-06-24T10:46:26;28.80;83.30
46037;DHT22;31769;49.304;8.428;2023-06-24T10:49:28;28.70;83.80
46037;DHT22;31769;49.304;8.428;2023-06-24T10:52:29;28.20;83.90
46037;DHT22;31769;49.304;8.428;2023-06-24T10:55:30;27.80;83.60
46037;DHT22;31769;49.304;8.428;2023-06-24T10:58:31;27.80;83.00
46037;DHT22;31769;49.304;8.428;2023-06-24T11:01:31;27.80;81.60
46037;DHT22;31769;49.304;8.428;2023-06-24T11:04:32;27.90;82.60
46037;DHT22;31769;49.304;8.428;2023-06-24T11:07:39;27.90;81.80
46037;DHT22;31769;49.304;8.428;2023-06-24T11:10:48;28.10;81.50
46037;DHT22;31769;49.304;8.428;2023-06-24T11:13:49;28.20;79.50
46037;DHT22;31769;49.304;8.428;2023-06-24T11:16:50;28.10;79.60
46037;DHT22;31769;49.304;8.428;2023-06-24T11:19:53;27.90;81.50
46037;DHT22;31769;49.304;8.428;2023-06-24T11:22:54;28.20;80.60
46037;DHT22;31769;49.304;8.428;2023-06-24T11:25:55;28.40;79.70
46037;DHT22;31769;49.304;8.428;2023-06-24T11:29:01;28.60;80.30
46037;DHT22;31769;49.304;8.428;2023-06-24T11:32:03;28.80;77.90
46037;DHT22;31769;49.304;8.428;2023-06-24T11:35:12;28.90;77.00
46037;DHT22;31769;49.304;8.428;2023-06-24T11:38:13;29.10;76.70
46037;DHT22;31769;49.304;8.428;2023-06-24T11:41:14;29.10;76.10
46037;DHT22;31769;49.304;8.428;2023-06-24T11:44:16;29.10;74.70
46037;DHT22;31769;49.304;8.428;2023-06-24T11:47:23;28.80;75.40
46037;DHT22;31769;49.304;8.428;2023-06-24T11:50:27;28.70;75.50
46037;DHT22;31769;49.304;8.428;2023-06-24T11:53:41;28.90;74.90
46037;DHT22;31769;49.304;8.428;2023-06-24T11:56:45;29.40;75.10
46037;DHT22;31769;49.304;8.428;2023-06-24T11:59:51;30.20;74.40
46037;DHT22;31769;49.304;8.428;2023-06-24T12:02:54;31.10;71.80
46037;DHT22;31769;49.304;8.428;2023-06-24T12:05:55;31.40;69.10
46037;DHT22;31769;49.304;8.428;2023-06-24T12:08:56;31.40;69.10
46037;DHT22;31769;49.304;8.428;2023-06-24T12:11:57;31.80;67.50
46037;DHT22;31769;49.304;8.428;2023-06-24T12:14:57;32.20;67.30
46037;DHT22;31769;49.304;8.428;2023-06-24T12:17:58;32.60;65.90
46037;DHT22;31769;49.304;8.428;2023-06-24T12:20:59;33.00;64.50
46037;DHT22;31769;49.304;8.428;2023-06-24T12:24:00;33.20;63.10
46037;DHT22;31769;49.304;8.428;2023-06-24T12:27:01;33.10;60.50
46037;DHT22;31769;49.304;8.428;2023-06-24T12:30:02;32.50;61.70
46037;DHT22;31769;49.304;8.428;2023-06-24T12:33:03;32.30;62.20
46037;DHT22;31769;49.304;8.428;2023-06-24T12:36:04;32.50;61.00
46037;DHT22;31769;49.304;8.428;2023-06-24T12:39:05;32.70;59.90
46037;DHT22;31769;49.304;8.428;2023-06-24T12:42:06;33.20;58.70
46037;DHT22;31769;49.304;8.428;2023-06-24T12:45:07;34.00;57.90
46037;DHT22;31769;49.304;8.428;2023-06-24T12:48:08;35.20;57.30
46037;DHT22;31769;49.304;8.428;2023-06-24T12:51:09;36.50;54.50
46037;DHT22;31769;49.304;8.428;2023-06-24T12:54:16;37.10;52.00
46037;DHT22;31769;49.304;8.428;2023-06-24T12:57:20;37.70;51.20
46037;DHT22;31769;49.304;8.428;2023-06-24T13:00:21;39.40;48.70
46037;DHT22;31769;49.304;8.428;2023-06-24T13:03:22;39.50;46.40
46037;DHT22;31769;49.304;8.428;2023-06-24T13:06:22;39.00;46.90
46037;DHT22;31769;49.304;8.428;2023-06-24T13:09:23;40.90;45.00
46037;DHT22;31769;49.304;8.428;2023-06-24T13:12:24;40.60;44.80
46037;DHT22;31769;49.304;8.428;2023-06-24T13:15:24;41.50;44.00
46037;DHT22;31769;49.304;8.428;2023-06-24T13:18:25;44.00;41.80
46037;DHT22;31769;49.304;8.428;2023-06-24T13:21:26;46.80;39.40
46037;DHT22;31769;49.304;8.428;2023-06-24T13:24:26;47.70;37.10
46037;DHT22;31769;49.304;8.428;2023-06-24T13:27:27;47.00;35.70
46037;DHT22;31769;49.304;8.428;2023-06-24T13:30:28;45.30;35.30
46037;DHT22;31769;49.304;8.428;2023-06-24T13:33:29;47.50;35.90
46037;DHT22;31769;49.304;8.428;2023-06-24T13:36:33;50.50;34.50
46037;DHT22;31769;49.304;8.428;2023-06-24T13:39:35;52.10;33.10
46037;DHT22;31769;49.304;8.428;2023-06-24T13:42:36;52.40;32.10
46037;DHT22;31769;49.304;8.428;2023-06-24T13:45:42;53.10;31.90
46037;DHT22;31769;49.304;8.428;2023-06-24T13:48:43;54.00;31.40
46037;DHT22;31769;49.304;8.428;2023-06-24T13:51:44;55.20;30.80
46037;DHT22;31769;49.304;8.428;2023-06-24T13:54:44;56.40;30.00
46037;DHT22;31769;49.304;8.428;2023-06-24T13:57:47;57.20;29.50
46037;DHT22;31769;49.304;8.428;2023-06-24T14:00:47;57.90;29.20
46037;DHT22;31769;49.304;8.428;2023-06-24T14:03:49;58.40;28.70
46037;DHT22;31769;49.304;8.428;2023-06-24T14:06:49;57.70;28.60
46037;DHT22;31769;49.304;8.428;2023-06-24T14:09:50;56.60;28.50
46037;DHT22;31769;49.304;8.428;2023-06-24T14:12:51;55.80;28.80
46037;DHT22;31769;49.304;8.428;2023-06-24T14:15:52;56.40;28.80
46037;DHT22;31769;49.304;8.428;2023-06-24T14:18:52;56.90;28.40
46037;DHT22;31769;49.304;8.428;2023-06-24T14:21:53;56.50;28.20
46037;DHT22;31769;49.304;8.428;2023-06-24T14:24:54;54.90;28.60
46037;DHT22;31769;49.304;8.428;2023-06-24T14:27:54;55.00;28.80
46037;DHT22;31769;49.304;8.428;2023-06-24T14:30:55;56.00;28.60
46037;DHT22;31769;49.304;8.428;2023-06-24T14:33:56;54.90;28.40
46037;DHT22;31769;49.304;8.428;2023-06-24T14:36:57;52.10;29.40
46037;DHT22;31769;49.304;8.428;2023-06-24T14:39:57;51.80;29.30
46037;DHT22;31769;49.304;8.428;2023-06-24T14:42:58;52.80;29.20
46037;DHT22;31769;49.304;8.428;2023-06-24T14:45:59;53.30;29.00
46037;DHT22;31769;49.304;8.428;2023-06-24T14:49:00;53.20;28.70
46037;DHT22;31769;49.304;8.428;2023-06-24T14:52:00;52.40;28.90
46037;DHT22;31769;49.304;8.428;2023-06-24T14:55:01;53.20;28.80
46037;DHT22;31769;49.304;8.428;2023-06-24T14:58:02;53.70;28.80
46037;DHT22;31769;49.304;8.428;2023-06-24T15:01:02;54.40;28.50
46037;DHT22;31769;49.304;8.428;2023-06-24T15:04:03;54.20;28.30
46037;DHT22;31769;49.304;8.428;2023-06-24T15:07:04;53.80;28.40
46037;DHT22;31769;49.304;8.428;2023-06-24T15:10:05;53.70;28.40
46037;DHT22;31769;49.304;8.428;2023-06-24T15:13:06;53.60;28.30
46037;DHT22;31769;49.304;8.428;2023-06-24T15:16:07;54.20;28.20
46037;DHT22;31769;49.304;8.428;2023-06-24T15:19:08;54.40;28.10
46037;DHT22;31769;49.304;8.428;2023-06-24T15:22:08;52.60;28.70
46037;DHT22;31769;49.304;8.428;2023-06-24T15:25:09;53.20;28.80
46037;DHT22;31769;49.304;8.428;2023-06-24T15:28:12;53.30;28.80
46037;DHT22;31769;49.304;8.428;2023-06-24T15:31:14;53.10;28.70
46037;DHT22;31769;49.304;8.428;2023-06-24T15:34:14;53.30;28.40
46037;DHT22;31769;49.304;8.428;2023-06-24T15:37:15;52.00;28.60
46037;DHT22;31769;49.304;8.428;2023-06-24T15:40:16;50.50;29.20
46037;DHT22;31769;49.304;8.428;2023-06-24T15:43:16;49.70;29.30
46037;DHT22;31769;49.304;8.428;2023-06-24T15:46:17;49.80;29.30
46037;DHT22;31769;49.304;8.428;2023-06-24T15:49:18;50.50;29.30
46037;DHT22;31769;49.304;8.428;2023-06-24T15:52:18;49.80;29.50
46037;DHT22;31769;49.304;8.428;2023-06-24T15:55:19;49.80;29.70
46037;DHT22;31769;49.304;8.428;2023-06-24T15:58:20;51.00;29.60
46037;DHT22;31769;49.304;8.428;2023-06-24T16:01:21;52.80;29.20
46037;DHT22;31769;49.304;8.428;2023-06-24T16:04:22;54.30;28.90
46037;DHT22;31769;49.304;8.428;2023-06-24T16:07:22;54.90;28.50
46037;DHT22;31769;49.304;8.428;2023-06-24T16:10:23;55.10;28.30
46037;DHT22;31769;49.304;8.428;2023-06-24T16:13:23;55.30;28.30
46037;DHT22;31769;49.304;8.428;2023-06-24T16:16:24;55.80;28.20
46037;DHT22;31769;49.304;8.428;2023-06-24T16:19:25;55.30;28.00
46037;DHT22;31769;49.304;8.428;2023-06-24T16:22:28;54.70;28.10
46037;DHT22;31769;49.304;8.428;2023-06-24T16:25:29;52.80;28.70
46037;DHT22;31769;49.304;8.428;2023-06-24T16:28:29;51.30;29.10
46037;DHT22;31769;49.304;8.428;2023-06-24T16:31:30;50.90;29.20
46037;DHT22;31769;49.304;8.428;2023-06-24T16:34:31;51.60;29.10
46037;DHT22;31769;49.304;8.428;2023-06-24T16:37:31;52.00;29.30
46037;DHT22;31769;49.304;8.428;2023-06-24T16:40:32;52.60;29.20
46037;DHT22;31769;49.304;8.428;2023-06-24T16:43:33;53.10;29.10
46037;DHT22;31769;49.304;8.428;2023-06-24T16:46:33;53.40;29.10
46037;DHT22;31769;49.304;8.428;2023-06-24T16:49:34;53.30;29.10
46037;DHT22;31769;49.304;8.428;2023-06-24T16:52:34;51.40;29.60
46037;DHT22;31769;49.304;8.428;2023-06-24T16:55:37;48.60;30.80
46037;DHT22;31769;49.304;8.428;2023-06-24T16:58:39;45.40;33.30
46037;DHT22;31769;49.304;8.428;2023-06-24T17:01:39;42.60;34.30
46037;DHT22;31769;49.304;8.428;2023-06-24T17:04:40;41.40;35.10
46037;DHT22;31769;49.304;8.428;2023-06-24T17:07:41;42.70;34.40
46037;DHT22;31769;49.304;8.428;2023-06-24T17:10:41;44.30;33.30
46037;DHT22;31769;49.304;8.428;2023-06-24T17:13:42;44.80;33.10
46037;DHT22;31769;49.304;8.428;2023-06-24T17:16:43;42.90;33.80
46037;DHT22;31769;49.304;8.428;2023-06-24T17:19:43;41.20;35.40
46037;DHT22;31769;49.304;8.428;2023-06-24T17:22:44;41.00;35.50
46037;DHT22;31769;49.304;8.428;2023-06-24T17:25:46;40.60;35.80
46037;DHT22;31769;49.304;8.428;2023-06-24T17:28:46;39.70;36.80
46037;DHT22;31769;49.304;8.428;2023-06-24T17:31:47;38.40;38.40
46037;DHT22;31769;49.304;8.428;2023-06-24T17:34:48;37.00;39.50
46037;DHT22;31769;49.304;8.428;2023-06-24T17:37:49;36.20;40.40
46037;DHT22;31769;49.304;8.428;2023-06-24T17:40:50;36.10;40.60
46037;DHT22;31769;49.304;8.428;2023-06-24T17:43:50;35.70;40.80
46037;DHT22;31769;49.304;8.428;2023-06-24T17:46:51;35.10;41.50
46037;DHT22;31769;49.304;8.428;2023-06-24T17:49:52;34.50;42.10
46037;DHT22;31769;49.304;8.428;2023-06-24T17:52:52;34.10;42.90
46037;DHT22;31769;49.304;8.428;2023-06-24T17:55:53;33.80;43.20
46037;DHT22;31769;49.304;8.428;2023-06-24T17:58:54;33.60;43.30
46037;DHT22;31769;49.304;8.428;2023-06-24T18:01:54;33.70;43.40
46037;DHT22;31769;49.304;8.428;2023-06-24T18:04:55;33.60;44.70
46037;DHT22;31769;49.304;8.428;2023-06-24T18:07:56;33.60;45.10
46037;DHT22;31769;49.304;8.428;2023-06-24T18:10:56;33.60;45.40
46037;DHT22;31769;49.304;8.428;2023-06-24T18:13:57;33.40;45.10
46037;DHT22;31769;49.304;8.428;2023-06-24T18:16:57;33.10;45.30
46037;DHT22;31769;49.304;8.428;2023-06-24T18:19:58;32.70;46.20
46037;DHT22;31769;49.304;8.428;2023-06-24T18:23:02;32.30;46.60
46037;DHT22;31769;49.304;8.428;2023-06-24T18:26:02;31.90;47.00
46037;DHT22;31769;49.304;8.428;2023-06-24T18:29:04;31.60;47.40
46037;DHT22;31769;49.304;8.428;2023-06-24T18:32:05;31.20;47.80
46037;DHT22;31769;49.304;8.428;2023-06-24T18:35:06;30.90;48.30
46037;DHT22;31769;49.304;8.428;2023-06-24T18:38:07;30.60;49.10
46037;DHT22;31769;49.304;8.428;2023-06-24T18:41:08;30.30;49.70
46037;DHT22;31769;49.304;8.428;2023-06-24T18:44:09;30.00;50.30
46037;DHT22;31769;49.304;8.428;2023-06-24T18:50:14;29.80;51.00
46037;DHT22;31769;49.304;8.428;2023-06-24T18:53:15;29.80;51.40
46037;DHT22;31769;49.304;8.428;2023-06-24T18:56:15;29.70;51.60
46037;DHT22;31769;49.304;8.428;2023-06-24T18:59:16;29.50;52.00
46037;DHT22;31769;49.304;8.428;2023-06-24T19:02:17;29.40;52.40
46037;DHT22;31769;49.304;8.428;2023-06-24T19:05:18;29.20;52.90
46037;DHT22;31769;49.304;8.428;2023-06-24T19:08:18;29.00;53.20
46037;DHT22;31769;49.304;8.428;2023-06-24T19:11:19;28.70;53.30
46037;DHT22;31769;49.304;8.428;2023-06-24T19:14:20;28.50;53.80
46037;DHT22;31769;49.304;8.428;2023-06-24T19:17:21;28.30;54.30
46037;DHT22;31769;49.304;8.428;2023-06-24T19:20:21;28.00;54.60
46037;DHT22;31769;49.304;8.428;2023-06-24T19:23:22;28.00;54.90
46037;DHT22;31769;49.304;8.428;2023-06-24T19:26:23;27.80;55.40
46037;DHT22;31769;49.304;8.428;2023-06-24T19:29:24;27.50;55.70